sensor_id;sensor_type;location;lat;lon;timestamp;P1;durP1;ratioP1;P2;durP2;ratioP2
36373;SDS011;22399;51.346;12.372;2023-10-08T00:01:11;10.03;;;2.57;;
36373;SDS011;22399;51.346;12.372;2023-10-08T00:03:42;5.10;;;1.80;;
36373;SDS011;22399;51.346;12.372;2023-10-08T00:06:16;3.53;;;1.52;;
36373;SDS011;22399;51.346;12.372;2023-10-08T00:08:46;4.28;;;2.20;;
36373;SDS011;22399;51.346;12.372;2023-10-08T00:11:16;4.55;;;1.80;;
36373;SDS011;22399;51.346;12.372;2023-10-08T00:13:45;8.85;;;2.47;;
36373;SDS011;22399;51.346;12.372;2023-10-08T00:16:17;8.88;;;1.95;;
36373;SDS011;22399;51.346;12.372;2023-10-08T00:18:48;9.50;;;2.33;;
36373;SDS011;22399;51.346;12.372;2023-10-08T00:21:19;9.15;;;1.77;;
36373;SDS011;22399;51.346;12.372;2023-10-08T00:23:54;7.15;;;2.03;;
36373;SDS011;22399;51.346;12.372;2023-10-08T00:26:26;4.95;;;2.10;;
36373;SDS011;22399;51.346;12.372;2023-10-08T00:28:58;9.27;;;2.75;;
36373;SDS011;22399;51.346;12.372;2023-10-08T00:31:29;7.93;;;2.05;;
36373;SDS011;22399;51.346;12.372;2023-10-08T00:34:03;8.40;;;2.40;;
36373;SDS011;22399;51.346;12.372;2023-10-08T00:36:38;6.35;;;2.13;;
36373;SDS011;22399;51.346;12.372;2023-10-08T00:39:08;9.05;;;2.30;;
36373;SDS011;22399;51.346;12.372;2023-10-08T00:41:40;11.48;;;2.72;;
36373;SDS011;22399;51.346;12.372;2023-10-08T00:44:11;10.73;;;2.92;;
36373;SDS011;22399;51.346;12.372;2023-10-08T00:46:44;5.22;;;2.22;;
36373;SDS011;22399;51.346;12.372;2023-10-08T00:49:15;13.25;;;2.53;;
36373;SDS011;22399;51.346;12.372;2023-10-08T00:51:53;10.90;;;2.95;;
36373;SDS011;22399;51.346;12.372;2023-10-08T00:54:52;9.88;;;2.53;;
36373;SDS011;22399;51.346;12.372;2023-10-08T00:57:35;9.57;;;2.65;;
36373;SDS011;22399;51.346;12.372;2023-10-08T01:00:09;10.57;;;2.50;;
36373;SDS011;22399;51.346;12.372;2023-10-08T01:02:50;8.25;;;2.65;;
36373;SDS011;22399;51.346;12.372;2023-10-08T01:05:27;13.35;;;2.85;;
36373;SDS011;22399;51.346;12.372;2023-10-08T01:08:14;6.95;;;2.38;;
36373;SDS011;22399;51.346;12.372;2023-10-08T01:10:49;12.35;;;2.53;;
36373;SDS011;22399;51.346;12.372;2023-10-08T01:13:30;12.25;;;2.88;;
36373;SDS011;22399;51.346;12.372;2023-10-08T01:16:09;7.13;;;3.75;;
36373;SDS011;22399;51.346;12.372;2023-10-08T01:18:40;6.28;;;3.28;;
36373;SDS011;22399;51.346;12.372;2023-10-08T01:21:17;7.82;;;2.22;;
36373;SDS011;22399;51.346;12.372;2023-10-08T01:24:02;9.10;;;2.92;;
36373;SDS011;22399;51.346;12.372;2023-10-08T01:26:33;10.20;;;2.17;;
36373;SDS011;22399;51.346;12.372;2023-10-08T01:29:08;13.85;;;2.40;;
36373;SDS011;22399;51.346;12.372;2023-10-08T01:31:46;7.68;;;2.67;;
36373;SDS011;22399;51.346;12.372;2023-10-08T01:34:15;6.22;;;2.05;;
36373;SDS011;22399;51.346;12.372;2023-10-08T01:36:44;6.13;;;2.05;;
36373;SDS011;22399;51.346;12.372;2023-10-08T01:39:13;7.78;;;1.63;;
36373;SDS011;22399;51.346;12.372;2023-10-08T01:41:43;6.70;;;1.92;;
36373;SDS011;22399;51.346;12.372;2023-10-08T01:44:13;6.30;;;1.30;;
36373;SDS011;22399;51.346;12.372;2023-10-08T01:46:42;0.57;;;0.50;;
36373;SDS011;22399;51.346;12.372;2023-10-08T01:49:12;2.67;;;0.60;;
36373;SDS011;22399;51.346;12.372;2023-10-08T01:51:42;3.20;;;0.30;;
36373;SDS011;22399;51.346;12.372;2023-10-08T01:54:15;1.35;;;0.30;;
36373;SDS011;22399;51.346;12.372;2023-10-08T01:56:47;2.63;;;0.35;;
36373;SDS011;22399;51.346;12.372;2023-10-08T01:59:17;0.00;;;0.00;;
36373;SDS011;22399;51.346;12.372;2023-10-08T02:01:45;0.20;;;0.20;;
36373;SDS011;22399;51.346;12.372;2023-10-08T02:04:15;0.20;;;0.00;;
36373;SDS011;22399;51.346;12.372;2023-10-08T02:06:44;0.17;;;0.10;;
36373;SDS011;22399;51.346;12.372;2023-10-08T02:09:13;0.00;;;0.00;;
36373;SDS011;22399;51.346;12.372;2023-10-08T02:11:44;0.10;;;0.10;;
36373;SDS011;22399;51.346;12.372;2023-10-08T02:14:17;0.00;;;0.00;;
36373;SDS011;22399;51.346;12.372;2023-10-08T02:16:47;0.00;;;0.00;;
36373;SDS011;22399;51.346;12.372;2023-10-08T02:19:16;0.10;;;0.05;;
36373;SDS011;22399;51.346;12.372;2023-10-08T02:21:54;0.00;;;0.00;;
36373;SDS011;22399;51.346;12.372;2023-10-08T02:24:25;0.00;;;0.00;;
36373;SDS011;22399;51.346;12.372;2023-10-08T02:26:54;0.00;;;0.00;;
36373;SDS011;22399;51.346;12.372;2023-10-08T02:29:25;0.00;;;0.00;;
36373;SDS011;22399;51.346;12.372;2023-10-08T02:31:55;0.08;;;0.08;;
36373;SDS011;22399;51.346;12.372;2023-10-08T02:34:24;0.00;;;0.00;;
36373;SDS011;22399;51.346;12.372;2023-10-08T02:36:53;0.45;;;0.10;;
36373;SDS011;22399;51.346;12.372;2023-10-08T02:39:21;0.00;;;0.00;;
36373;SDS011;22399;51.346;12.372;2023-10-08T02:41:52;0.10;;;0.00;;
36373;SDS011;22399;51.346;12.372;2023-10-08T02:44:26;0.00;;;0.00;;
36373;SDS011;22399;51.346;12.372;2023-10-08T02:46:55;0.00;;;0.00;;
36373;SDS011;22399;51.346;12.372;2023-10-08T02:49:23;2.65;;;0.00;;
36373;SDS011;22399;51.346;12.372;2023-10-08T02:51:52;0.10;;;0.00;;
36373;SDS011;22399;51.346;12.372;2023-10-08T02:54:22;0.00;;;0.00;;
36373;SDS011;22399;51.346;12.372;2023-10-08T02:57:00;0.35;;;0.00;;
36373;SDS011;22399;51.346;12.372;2023-10-08T02:59:31;0.10;;;0.10;;
36373;SDS011;22399;51.346;12.372;2023-10-08T03:02:08;0.00;;;0.00;;
36373;SDS011;22399;51.346;12.372;2023-10-08T03:04:47;0.00;;;0.00;;
36373;SDS011;22399;51.346;12.372;2023-10-08T03:07:18;0.10;;;0.10;;
36373;SDS011;22399;51.346;12.372;2023-10-08T03:09:59;0.00;;;0.00;;
36373;SDS011;22399;51.346;12.372;2023-10-08T03:12:34;0.20;;;0.20;;
36373;SDS011;22399;51.346;12.372;2023-10-08T03:15:02;0.30;;;0.20;;
36373;SDS011;22399;51.346;12.372;2023-10-08T03:17:40;0.05;;;0.05;;
36373;SDS011;22399;51.346;12.372;2023-10-08T03:20:16;0.20;;;0.10;;
36373;SDS011;22399;51.346;12.372;2023-10-08T03:23:05;0.20;;;0.13;;
36373;SDS011;22399;51.346;12.372;2023-10-08T03:25:40;0.20;;;0.10;;
36373;SDS011;22399;51.346;12.372;2023-10-08T03:28:10;1.27;;;0.20;;
36373;SDS011;22399;51.346;12.372;2023-10-08T03:30:40;0.22;;;0.08;;
36373;SDS011;22399;51.346;12.372;2023-10-08T03:33:18;0.30;;;0.08;;
36373;SDS011;22399;51.346;12.372;2023-10-08T03:35:51;0.00;;;0.00;;
36373;SDS011;22399;51.346;12.372;2023-10-08T03:38:22;0.38;;;0.00;;
36373;SDS011;22399;51.346;12.372;2023-10-08T03:41:05;0.03;;;0.00;;
36373;SDS011;22399;51.346;12.372;2023-10-08T03:43:37;0.00;;;0.00;;
36373;SDS011;22399;51.346;12.372;2023-10-08T03:46:17;0.00;;;0.00;;
36373;SDS011;22399;51.346;12.372;2023-10-08T03:48:48;0.08;;;0.08;;
36373;SDS011;22399;51.346;12.372;2023-10-08T03:51:17;0.00;;;0.00;;
36373;SDS011;22399;51.346;12.372;2023-10-08T03:53:48;0.00;;;0.00;;
36373;SDS011;22399;51.346;12.372;2023-10-08T03:56:26;0.00;;;0.00;;
36373;SDS011;22399;51.346;12.372;2023-10-08T03:58:58;0.00;;;0.00;;
36373;SDS011;22399;51.346;12.372;2023-10-08T04:01:30;1.45;;;0.00;;
36373;SDS011;22399;51.346;12.372;2023-10-08T04:03:59;0.00;;;0.00;;
36373;SDS011;22399;51.346;12.372;2023-10-08T04:06:28;0.10;;;0.10;;
36373;SDS011;22399;51.346;12.372;2023-10-08T04:08:59;1.17;;;0.20;;
36373;SDS011;22399;51.346;12.372;2023-10-08T04:11:43;0.40;;;0.28;;
36373;SDS011;22399;51.346;12.372;2023-10-08T04:14:26;0.55;;;0.20;;
36373;SDS011;22399;51.346;12.372;2023-10-08T04:16:56;0.10;;;0.10;;
36373;SDS011;22399;51.346;12.372;2023-10-08T04:19:25;0.75;;;0.32;;
36373;SDS011;22399;51.346;12.372;2023-10-08T04:21:54;1.40;;;0.32;;
36373;SDS011;22399;51.346;12.372;2023-10-08T04:24:24;0.30;;;0.28;;
36373;SDS011;22399;51.346;12.372;2023-10-08T04:26:56;0.45;;;0.30;;
36373;SDS011;22399;51.346;12.372;2023-10-08T04:29:26;1.60;;;0.47;;
36373;SDS011;22399;51.346;12.372;2023-10-08T04:31:59;0.95;;;0.47;;
36373;SDS011;22399;51.346;12.372;2023-10-08T04:34:38;1.15;;;0.68;;
36373;SDS011;22399;51.346;12.372;2023-10-08T04:37:13;2.53;;;0.70;;
36373;SDS011;22399;51.346;12.372;2023-10-08T04:39:46;0.77;;;0.50;;
36373;SDS011;22399;51.346;12.372;2023-10-08T04:42:21;1.13;;;0.60;;
36373;SDS011;22399;51.346;12.372;2023-10-08T04:44:55;0.80;;;0.40;;
36373;SDS011;22399;51.346;12.372;2023-10-08T04:47:25;0.40;;;0.20;;
36373;SDS011;22399;51.346;12.372;2023-10-08T04:50:02;0.50;;;0.32;;
36373;SDS011;22399;51.346;12.372;2023-10-08T04:52:32;0.52;;;0.43;;
36373;SDS011;22399;51.346;12.372;2023-10-08T04:55:12;0.52;;;0.40;;
36373;SDS011;22399;51.346;12.372;2023-10-08T04:57:47;2.05;;;0.52;;
36373;SDS011;22399;51.346;12.372;2023-10-08T05:00:18;0.68;;;0.28;;
36373;SDS011;22399;51.346;12.372;2023-10-08T05:03:07;5.70;;;0.50;;
36373;SDS011;22399;51.346;12.372;2023-10-08T05:05:41;0.10;;;0.10;;
36373;SDS011;22399;51.346;12.372;2023-10-08T05:08:34;0.52;;;0.20;;
36373;SDS011;22399;51.346;12.372;2023-10-08T05:11:14;3.45;;;0.63;;
36373;SDS011;22399;51.346;12.372;2023-10-08T05:13:51;1.23;;;0.43;;
36373;SDS011;22399;51.346;12.372;2023-10-08T05:16:34;0.35;;;0.20;;
36373;SDS011;22399;51.346;12.372;2023-10-08T05:19:11;3.33;;;0.60;;
36373;SDS011;22399;51.346;12.372;2023-10-08T05:22:04;0.98;;;0.38;;
36373;SDS011;22399;51.346;12.372;2023-10-08T05:24:45;3.35;;;0.50;;
36373;SDS011;22399;51.346;12.372;2023-10-08T05:27:34;1.13;;;0.40;;
36373;SDS011;22399;51.346;12.372;2023-10-08T05:30:24;5.93;;;0.75;;
36373;SDS011;22399;51.346;12.372;2023-10-08T05:32:57;2.28;;;0.35;;
36373;SDS011;22399;51.346;12.372;2023-10-08T05:35:50;2.95;;;0.50;;
36373;SDS011;22399;51.346;12.372;2023-10-08T05:38:29;4.50;;;0.60;;
36373;SDS011;22399;51.346;12.372;2023-10-08T05:41:16;1.38;;;0.43;;
36373;SDS011;22399;51.346;12.372;2023-10-08T05:44:05;4.00;;;0.77;;
36373;SDS011;22399;51.346;12.372;2023-10-08T05:46:51;0.95;;;0.30;;
36373;SDS011;22399;51.346;12.372;2023-10-08T05:49:45;7.43;;;0.80;;
36373;SDS011;22399;51.346;12.372;2023-10-08T05:52:42;0.82;;;0.30;;
36373;SDS011;22399;51.346;12.372;2023-10-08T05:57:52;1.17;;;0.80;;
36373;SDS011;22399;51.346;12.372;2023-10-08T06:00:39;1.40;;;0.98;;
36373;SDS011;22399;51.346;12.372;2023-10-08T06:03:32;2.58;;;0.52;;
36373;SDS011;22399;51.346;12.372;2023-10-08T06:06:05;6.75;;;0.60;;
36373;SDS011;22399;51.346;12.372;2023-10-08T06:08:51;6.97;;;0.65;;
36373;SDS011;22399;51.346;12.372;2023-10-08T06:11:33;3.53;;;0.73;;
36373;SDS011;22399;51.346;12.372;2023-10-08T06:14:11;1.95;;;0.85;;
36373;SDS011;22399;51.346;12.372;2023-10-08T06:16:55;0.65;;;0.30;;
36373;SDS011;22399;51.346;12.372;2023-10-08T06:19:40;1.20;;;0.50;;
36373;SDS011;22399;51.346;12.372;2023-10-08T06:22:11;0.57;;;0.22;;
36373;SDS011;22399;51.346;12.372;2023-10-08T06:24:38;2.55;;;0.68;;
36373;SDS011;22399;51.346;12.372;2023-10-08T06:27:07;5.90;;;0.60;;
36373;SDS011;22399;51.346;12.372;2023-10-08T06:29:36;1.15;;;0.35;;
36373;SDS011;22399;51.346;12.372;2023-10-08T06:32:11;1.23;;;0.80;;
36373;SDS011;22399;51.346;12.372;2023-10-08T06:34:39;1.20;;;0.77;;
36373;SDS011;22399;51.346;12.372;2023-10-08T06:37:08;3.28;;;0.68;;
36373;SDS011;22399;51.346;12.372;2023-10-08T06:39:43;4.82;;;0.50;;
36373;SDS011;22399;51.346;12.372;2023-10-08T06:42:15;2.45;;;0.75;;
36373;SDS011;22399;51.346;12.372;2023-10-08T06:44:44;2.15;;;0.90;;
36373;SDS011;22399;51.346;12.372;2023-10-08T06:47:15;2.03;;;0.80;;
36373;SDS011;22399;51.346;12.372;2023-10-08T06:49:45;4.95;;;1.00;;
36373;SDS011;22399;51.346;12.372;2023-10-08T06:52:14;3.10;;;1.30;;
36373;SDS011;22399;51.346;12.372;2023-10-08T06:54:43;5.88;;;1.23;;
36373;SDS011;22399;51.346;12.372;2023-10-08T06:57:13;5.18;;;1.70;;
36373;SDS011;22399;51.346;12.372;2023-10-08T06:59:47;6.20;;;1.58;;
36373;SDS011;22399;51.346;12.372;2023-10-08T07:02:17;12.85;;;1.33;;
36373;SDS011;22399;51.346;12.372;2023-10-08T07:04:46;2.78;;;1.02;;
36373;SDS011;22399;51.346;12.372;2023-10-08T07:07:15;4.93;;;1.60;;
36373;SDS011;22399;51.346;12.372;2023-10-08T07:09:47;2.25;;;1.02;;
36373;SDS011;22399;51.346;12.372;2023-10-08T07:12:18;5.85;;;1.08;;
36373;SDS011;22399;51.346;12.372;2023-10-08T07:14:51;9.15;;;1.13;;
36373;SDS011;22399;51.346;12.372;2023-10-08T07:17:20;9.10;;;1.02;;
36373;SDS011;22399;51.346;12.372;2023-10-08T07:19:54;6.40;;;0.90;;
36373;SDS011;22399;51.346;12.372;2023-10-08T07:22:24;1.95;;;0.82;;
36373;SDS011;22399;51.346;12.372;2023-10-08T07:24:57;11.23;;;1.00;;
36373;SDS011;22399;51.346;12.372;2023-10-08T07:27:26;4.93;;;1.15;;
36373;SDS011;22399;51.346;12.372;2023-10-08T07:29:59;1.55;;;0.55;;
36373;SDS011;22399;51.346;12.372;2023-10-08T07:32:29;2.90;;;0.93;;
36373;SDS011;22399;51.346;12.372;2023-10-08T07:34:58;3.90;;;0.70;;
36373;SDS011;22399;51.346;12.372;2023-10-08T07:37:42;10.32;;;0.95;;
36373;SDS011;22399;51.346;12.372;2023-10-08T07:40:13;3.95;;;0.90;;
36373;SDS011;22399;51.346;12.372;2023-10-08T07:42:42;2.70;;;0.60;;
36373;SDS011;22399;51.346;12.372;2023-10-08T07:45:11;2.65;;;0.93;;
36373;SDS011;22399;51.346;12.372;2023-10-08T07:47:44;4.85;;;1.08;;
36373;SDS011;22399;51.346;12.372;2023-10-08T07:50:13;9.63;;;3.13;;
36373;SDS011;22399;51.346;12.372;2023-10-08T07:52:42;6.47;;;1.83;;
36373;SDS011;22399;51.346;12.372;2023-10-08T07:55:11;6.43;;;1.10;;
36373;SDS011;22399;51.346;12.372;2023-10-08T07:57:45;4.55;;;1.00;;
36373;SDS011;22399;51.346;12.372;2023-10-08T08:00:14;8.65;;;2.00;;
36373;SDS011;22399;51.346;12.372;2023-10-08T08:02:50;4.80;;;1.10;;
36373;SDS011;22399;51.346;12.372;2023-10-08T08:05:21;7.43;;;1.05;;
36373;SDS011;22399;51.346;12.372;2023-10-08T08:07:52;7.45;;;1.17;;
36373;SDS011;22399;51.346;12.372;2023-10-08T08:10:24;6.65;;;0.77;;
36373;SDS011;22399;51.346;12.372;2023-10-08T08:12:53;4.53;;;1.38;;
36373;SDS011;22399;51.346;12.372;2023-10-08T08:15:23;12.90;;;1.33;;
36373;SDS011;22399;51.346;12.372;2023-10-08T08:17:54;3.90;;;1.35;;
36373;SDS011;22399;51.346;12.372;2023-10-08T08:20:23;7.10;;;0.80;;
36373;SDS011;22399;51.346;12.372;2023-10-08T08:23:02;2.53;;;0.90;;
36373;SDS011;22399;51.346;12.372;2023-10-08T08:25:38;6.53;;;1.38;;
36373;SDS011;22399;51.346;12.372;2023-10-08T08:28:22;2.88;;;1.10;;
36373;SDS011;22399;51.346;12.372;2023-10-08T08:30:51;6.10;;;1.15;;
36373;SDS011;22399;51.346;12.372;2023-10-08T08:33:21;3.63;;;1.27;;
36373;SDS011;22399;51.346;12.372;2023-10-08T08:35:59;1.67;;;0.82;;
36373;SDS011;22399;51.346;12.372;2023-10-08T08:38:30;6.35;;;1.40;;
36373;SDS011;22399;51.346;12.372;2023-10-08T08:41:04;2.60;;;0.93;;
36373;SDS011;22399;51.346;12.372;2023-10-08T08:43:34;5.63;;;1.15;;
36373;SDS011;22399;51.346;12.372;2023-10-08T08:46:03;8.30;;;1.50;;
36373;SDS011;22399;51.346;12.372;2023-10-08T08:48:34;10.18;;;1.48;;
36373;SDS011;22399;51.346;12.372;2023-10-08T08:51:05;8.10;;;1.42;;
36373;SDS011;22399;51.346;12.372;2023-10-08T08:53:36;3.47;;;1.38;;
36373;SDS011;22399;51.346;12.372;2023-10-08T08:56:07;5.43;;;1.15;;
36373;SDS011;22399;51.346;12.372;2023-10-08T08:58:37;5.68;;;1.60;;
36373;SDS011;22399;51.346;12.372;2023-10-08T09:01:08;7.15;;;1.20;;
36373;SDS011;22399;51.346;12.372;2023-10-08T09:03:40;4.90;;;1.27;;
36373;SDS011;22399;51.346;12.372;2023-10-08T09:06:08;6.18;;;1.60;;
36373;SDS011;22399;51.346;12.372;2023-10-08T09:08:38;7.15;;;1.15;;
36373;SDS011;22399;51.346;12.372;2023-10-08T09:11:15;5.10;;;1.17;;
36373;SDS011;22399;51.346;12.372;2023-10-08T09:13:44;6.38;;;1.08;;
36373;SDS011;22399;51.346;12.372;2023-10-08T09:16:13;1.77;;;0.73;;
36373;SDS011;22399;51.346;12.372;2023-10-08T09:18:42;3.00;;;1.02;;
36373;SDS011;22399;51.346;12.372;2023-10-08T09:21:13;6.43;;;0.82;;
36373;SDS011;22399;51.346;12.372;2023-10-08T09:23:49;6.68;;;1.30;;
36373;SDS011;22399;51.346;12.372;2023-10-08T09:26:21;1.90;;;0.80;;
36373;SDS011;22399;51.346;12.372;2023-10-08T09:28:51;12.40;;;0.90;;
36373;SDS011;22399;51.346;12.372;2023-10-08T09:31:22;3.30;;;1.20;;
36373;SDS011;22399;51.346;12.372;2023-10-08T09:33:54;10.57;;;1.50;;
36373;SDS011;22399;51.346;12.372;2023-10-08T09:36:23;3.60;;;1.42;;
36373;SDS011;22399;51.346;12.372;2023-10-08T09:39:00;3.20;;;1.27;;
36373;SDS011;22399;51.346;12.372;2023-10-08T09:41:32;8.85;;;1.80;;
36373;SDS011;22399;51.346;12.372;2023-10-08T09:44:02;3.38;;;1.30;;
36373;SDS011;22399;51.346;12.372;2023-10-08T09:46:38;5.63;;;1.10;;
36373;SDS011;22399;51.346;12.372;2023-10-08T09:49:10;4.22;;;1.10;;
36373;SDS011;22399;51.346;12.372;2023-10-08T09:51:45;6.85;;;1.50;;
36373;SDS011;22399;51.346;12.372;2023-10-08T09:54:15;11.82;;;1.67;;
36373;SDS011;22399;51.346;12.372;2023-10-08T09:56:49;2.50;;;1.25;;
36373;SDS011;22399;51.346;12.372;2023-10-08T09:59:19;2.47;;;1.45;;
36373;SDS011;22399;51.346;12.372;2023-10-08T10:01:49;4.22;;;1.58;;
36373;SDS011;22399;51.346;12.372;2023-10-08T10:04:23;5.55;;;1.33;;
36373;SDS011;22399;51.346;12.372;2023-10-08T10:06:52;11.20;;;2.13;;
36373;SDS011;22399;51.346;12.372;2023-10-08T10:09:21;7.57;;;1.63;;
36373;SDS011;22399;51.346;12.372;2023-10-08T10:11:53;6.45;;;1.95;;
36373;SDS011;22399;51.346;12.372;2023-10-08T10:14:23;9.15;;;1.60;;
36373;SDS011;22399;51.346;12.372;2023-10-08T10:17:08;7.18;;;1.98;;
36373;SDS011;22399;51.346;12.372;2023-10-08T10:19:44;7.72;;;1.30;;
36373;SDS011;22399;51.346;12.372;2023-10-08T10:22:14;5.93;;;1.85;;
36373;SDS011;22399;51.346;12.372;2023-10-08T10:24:56;3.47;;;1.95;;
36373;SDS011;22399;51.346;12.372;2023-10-08T10:27:28;4.95;;;2.20;;
36373;SDS011;22399;51.346;12.372;2023-10-08T10:30:01;7.40;;;2.55;;
36373;SDS011;22399;51.346;12.372;2023-10-08T10:32:35;10.07;;;3.55;;
36373;SDS011;22399;51.346;12.372;2023-10-08T10:35:04;7.95;;;2.25;;
36373;SDS011;22399;51.346;12.372;2023-10-08T10:37:38;14.50;;;2.50;;
36373;SDS011;22399;51.346;12.372;2023-10-08T10:40:08;9.13;;;3.00;;
36373;SDS011;22399;51.346;12.372;2023-10-08T10:42:41;4.55;;;2.10;;
36373;SDS011;22399;51.346;12.372;2023-10-08T10:45:14;6.97;;;2.53;;
36373;SDS011;22399;51.346;12.372;2023-10-08T10:48:02;8.68;;;2.38;;
36373;SDS011;22399;51.346;12.372;2023-10-08T10:50:40;6.50;;;1.67;;
36373;SDS011;22399;51.346;12.372;2023-10-08T10:53:17;4.10;;;1.50;;
36373;SDS011;22399;51.346;12.372;2023-10-08T10:55:46;4.93;;;1.70;;
36373;SDS011;22399;51.346;12.372;2023-10-08T10:58:26;7.70;;;1.98;;
36373;SDS011;22399;51.346;12.372;2023-10-08T11:00:55;10.93;;;1.45;;
36373;SDS011;22399;51.346;12.372;2023-10-08T11:03:26;7.85;;;1.38;;
36373;SDS011;22399;51.346;12.372;2023-10-08T11:05:57;4.63;;;1.63;;
36373;SDS011;22399;51.346;12.372;2023-10-08T11:08:32;7.90;;;2.55;;
36373;SDS011;22399;51.346;12.372;2023-10-08T11:11:02;5.72;;;1.75;;
36373;SDS011;22399;51.346;12.372;2023-10-08T11:13:35;3.28;;;1.60;;
36373;SDS011;22399;51.346;12.372;2023-10-08T11:16:07;6.40;;;1.80;;
36373;SDS011;22399;51.346;12.372;2023-10-08T11:18:43;7.93;;;1.63;;
36373;SDS011;22399;51.346;12.372;2023-10-08T11:21:13;8.52;;;1.95;;
36373;SDS011;22399;51.346;12.372;2023-10-08T11:23:44;4.47;;;2.35;;
36373;SDS011;22399;51.346;12.372;2023-10-08T11:26:23;6.22;;;1.85;;
36373;SDS011;22399;51.346;12.372;2023-10-08T11:29:01;7.57;;;2.45;;
36373;SDS011;22399;51.346;12.372;2023-10-08T11:31:32;5.07;;;1.52;;
36373;SDS011;22399;51.346;12.372;2023-10-08T11:34:06;4.43;;;1.40;;
36373;SDS011;22399;51.346;12.372;2023-10-08T11:36:40;2.70;;;1.35;;
36373;SDS011;22399;51.346;12.372;2023-10-08T11:39:20;5.30;;;1.33;;
36373;SDS011;22399;51.346;12.372;2023-10-08T11:41:57;14.45;;;1.38;;
36373;SDS011;22399;51.346;12.372;2023-10-08T11:47:07;8.15;;;1.30;;
36373;SDS011;22399;51.346;12.372;2023-10-08T11:49:41;3.08;;;1.02;;
36373;SDS011;22399;51.346;12.372;2023-10-08T11:54:48;1.98;;;1.00;;
36373;SDS011;22399;51.346;12.372;2023-10-08T11:57:19;7.00;;;1.42;;
36373;SDS011;22399;51.346;12.372;2023-10-08T11:59:49;10.25;;;1.52;;
36373;SDS011;22399;51.346;12.372;2023-10-08T12:02:23;12.02;;;1.70;;
36373;SDS011;22399;51.346;12.372;2023-10-08T12:04:53;3.30;;;1.23;;
36373;SDS011;22399;51.346;12.372;2023-10-08T12:07:24;5.80;;;1.48;;
36373;SDS011;22399;51.346;12.372;2023-10-08T12:09:54;7.03;;;1.30;;
36373;SDS011;22399;51.346;12.372;2023-10-08T12:12:23;5.05;;;1.15;;
36373;SDS011;22399;51.346;12.372;2023-10-08T12:14:54;3.47;;;1.02;;
36373;SDS011;22399;51.346;12.372;2023-10-08T12:17:23;1.90;;;0.90;;
36373;SDS011;22399;51.346;12.372;2023-10-08T12:20:05;2.70;;;1.13;;
36373;SDS011;22399;51.346;12.372;2023-10-08T12:22:50;4.53;;;1.33;;
36373;SDS011;22399;51.346;12.372;2023-10-08T12:25:18;1.13;;;0.80;;
36373;SDS011;22399;51.346;12.372;2023-10-08T12:27:47;2.95;;;1.13;;
36373;SDS011;22399;51.346;12.372;2023-10-08T12:30:16;6.20;;;1.15;;
36373;SDS011;22399;51.346;12.372;2023-10-08T12:32:46;7.95;;;1.42;;
36373;SDS011;22399;51.346;12.372;2023-10-08T12:35:14;5.57;;;1.30;;
36373;SDS011;22399;51.346;12.372;2023-10-08T12:37:42;4.15;;;1.10;;
36373;SDS011;22399;51.346;12.372;2023-10-08T12:40:11;5.63;;;1.35;;
36373;SDS011;22399;51.346;12.372;2023-10-08T12:42:52;4.38;;;1.25;;
36373;SDS011;22399;51.346;12.372;2023-10-08T12:45:21;2.50;;;1.27;;
36373;SDS011;22399;51.346;12.372;2023-10-08T12:47:51;4.82;;;1.10;;
36373;SDS011;22399;51.346;12.372;2023-10-08T12:50:20;5.55;;;1.10;;
36373;SDS011;22399;51.346;12.372;2023-10-08T12:52:56;10.77;;;1.65;;
36373;SDS011;22399;51.346;12.372;2023-10-08T12:55:30;6.10;;;1.38;;
36373;SDS011;22399;51.346;12.372;2023-10-08T13:00:37;5.22;;;1.75;;
36373;SDS011;22399;51.346;12.372;2023-10-08T13:03:09;3.85;;;1.35;;
36373;SDS011;22399;51.346;12.372;2023-10-08T13:05:42;5.03;;;1.33;;
36373;SDS011;22399;51.346;12.372;2023-10-08T13:08:12;4.28;;;1.00;;
36373;SDS011;22399;51.346;12.372;2023-10-08T13:10:40;4.15;;;1.17;;
36373;SDS011;22399;51.346;12.372;2023-10-08T13:13:11;11.20;;;1.30;;
36373;SDS011;22399;51.346;12.372;2023-10-08T13:15:40;7.22;;;0.93;;
36373;SDS011;22399;51.346;12.372;2023-10-08T13:18:11;5.03;;;1.73;;
36373;SDS011;22399;51.346;12.372;2023-10-08T13:20:40;4.95;;;0.98;;
36373;SDS011;22399;51.346;12.372;2023-10-08T13:23:11;4.55;;;1.17;;
36373;SDS011;22399;51.346;12.372;2023-10-08T13:25:39;8.27;;;1.35;;
36373;SDS011;22399;51.346;12.372;2023-10-08T13:28:08;3.70;;;1.27;;
36373;SDS011;22399;51.346;12.372;2023-10-08T13:30:38;5.50;;;1.02;;
36373;SDS011;22399;51.346;12.372;2023-10-08T13:33:06;1.65;;;0.90;;
36373;SDS011;22399;51.346;12.372;2023-10-08T13:35:37;7.53;;;1.10;;
36373;SDS011;22399;51.346;12.372;2023-10-08T13:38:06;5.35;;;1.58;;
36373;SDS011;22399;51.346;12.372;2023-10-08T13:40:40;4.25;;;1.20;;
36373;SDS011;22399;51.346;12.372;2023-10-08T13:43:28;3.10;;;1.50;;
36373;SDS011;22399;51.346;12.372;2023-10-08T13:46:02;5.13;;;1.10;;
36373;SDS011;22399;51.346;12.372;2023-10-08T13:48:33;4.00;;;1.20;;
36373;SDS011;22399;51.346;12.372;2023-10-08T13:51:05;3.60;;;1.70;;
36373;SDS011;22399;51.346;12.372;2023-10-08T13:53:40;13.68;;;1.20;;
36373;SDS011;22399;51.346;12.372;2023-10-08T13:56:12;3.30;;;1.25;;
36373;SDS011;22399;51.346;12.372;2023-10-08T13:58:41;4.22;;;0.98;;
36373;SDS011;22399;51.346;12.372;2023-10-08T14:01:12;3.58;;;0.82;;
36373;SDS011;22399;51.346;12.372;2023-10-08T14:03:48;2.40;;;1.08;;
36373;SDS011;22399;51.346;12.372;2023-10-08T14:06:22;3.15;;;1.30;;
36373;SDS011;22399;51.346;12.372;2023-10-08T14:08:52;7.13;;;1.55;;
36373;SDS011;22399;51.346;12.372;2023-10-08T14:11:21;1.67;;;1.00;;
36373;SDS011;22399;51.346;12.372;2023-10-08T14:13:51;5.22;;;0.95;;
36373;SDS011;22399;51.346;12.372;2023-10-08T14:16:19;4.18;;;0.57;;
36373;SDS011;22399;51.346;12.372;2023-10-08T14:18:50;3.42;;;0.90;;
36373;SDS011;22399;51.346;12.372;2023-10-08T14:21:22;3.92;;;1.05;;
36373;SDS011;22399;51.346;12.372;2023-10-08T14:23:51;3.35;;;0.90;;
36373;SDS011;22399;51.346;12.372;2023-10-08T14:26:20;2.90;;;1.15;;
36373;SDS011;22399;51.346;12.372;2023-10-08T14:28:49;4.57;;;1.02;;
36373;SDS011;22399;51.346;12.372;2023-10-08T14:31:24;3.95;;;0.73;;
36373;SDS011;22399;51.346;12.372;2023-10-08T14:33:53;1.95;;;1.10;;
36373;SDS011;22399;51.346;12.372;2023-10-08T14:36:33;3.30;;;0.80;;
36373;SDS011;22399;51.346;12.372;2023-10-08T14:39:19;10.13;;;1.48;;
36373;SDS011;22399;51.346;12.372;2023-10-08T14:42:20;5.95;;;1.10;;
36373;SDS011;22399;51.346;12.372;2023-10-08T14:45:06;5.50;;;1.60;;
36373;SDS011;22399;51.346;12.372;2023-10-08T14:47:38;3.45;;;1.40;;
36373;SDS011;22399;51.346;12.372;2023-10-08T14:50:08;4.78;;;1.60;;
36373;SDS011;22399;51.346;12.372;2023-10-08T14:52:44;3.50;;;1.10;;
36373;SDS011;22399;51.346;12.372;2023-10-08T14:55:13;11.20;;;1.15;;
36373;SDS011;22399;51.346;12.372;2023-10-08T14:57:42;2.92;;;1.30;;
36373;SDS011;22399;51.346;12.372;2023-10-08T15:00:11;11.27;;;1.45;;
36373;SDS011;22399;51.346;12.372;2023-10-08T15:02:40;2.15;;;0.90;;
36373;SDS011;22399;51.346;12.372;2023-10-08T15:05:09;6.05;;;1.42;;
36373;SDS011;22399;51.346;12.372;2023-10-08T15:07:37;4.15;;;1.58;;
36373;SDS011;22399;51.346;12.372;2023-10-08T15:10:07;3.83;;;1.45;;
36373;SDS011;22399;51.346;12.372;2023-10-08T15:12:37;6.43;;;1.58;;
36373;SDS011;22399;51.346;12.372;2023-10-08T15:15:06;11.82;;;3.35;;
36373;SDS011;22399;51.346;12.372;2023-10-08T15:17:40;7.25;;;1.90;;
36373;SDS011;22399;51.346;12.372;2023-10-08T15:20:10;6.60;;;1.92;;